Galesburg, IL

11:19 AM CST on February 19, 2017 (GMT -0600)
Galesburg Municipal

Weather History for KGBG - July, 2014

Change the Weather History Date:

Monday, July 28, 2014

  Actual Average Record
Temperature  
Mean Temperature 64 °F -  
Max Temperature 74 °F 83 °F 102 °F (1983)
Min Temperature 54 °F 64 °F 51 °F (2004)
Degree Days  
Heating Degree Days 2    
Growing Degree Days 14 (Base 50)    
Moisture  
Dew Point 56 °F    
Average Humidity 74    
Maximum Humidity 96    
Minimum Humidity 48    
Precipitation  
Precipitation 0.00 in - - ()
Sea Level Pressure  
Sea Level Pressure 30.10 in    
Wind  
Wind Speed 8 mph (NNW)    
Max Wind Speed 16 mph    
Max Gust Speed 23 mph    
Visibility 10 miles    
Events      
Averages and records for this station are not official NWS values.
T = Trace of Precipitation, MM = Missing Value Source: NWS Daily Summary

Daily Weather History Graph

Daily Weather History Graph

Search for Another Location

Airport or City:

Trip Planner

Search our weather history database for the weather conditions in past years. The results will help you decide how hot, cold, wet, or windy it might be!

Date:

Astronomy

Jul. 28, 2014 Rise Set
Actual Time 5:54 AM CDT 8:21 PM CDT
Civil Twilight 5:22 AM CDT 8:52 PM CDT
Nautical Twilight 4:43 AM CDT 9:31 PM CDT
Astronomical Twilight 4:00 AM CDT 10:14 PM CDT
Moon 7:36 AM CDT (7/28) 9:02 PM CDT (7/28)
Length of Visible Light 15h 30m
Length of Day
14h 27m
Waxing Crescent, 3% of the Moon is Illuminated
Jul 28
Waxing Crescent
Aug 3
First Quarter
Aug 10
Full
Aug 17
Last Quarter
Aug 25
New

Hourly Weather History & Observations

Time (CDT) Temp. Dew Point Humidity Pressure Visibility Wind Dir Wind Speed Gust Speed Precip Events Conditions
12:15 AM 63.5 °F 60.8 °F 91% 29.98 in 10.0 mi WNW 6.9 mph - N/A   Clear
12:35 AM 63.1 °F 60.8 °F 92% 29.99 in 10.0 mi WNW 6.9 mph - N/A   Clear
12:55 AM 63.0 °F 60.8 °F 93% 29.99 in 10.0 mi WNW 5.8 mph - N/A   Clear
1:15 AM 63.0 °F 60.8 °F 93% 29.99 in 10.0 mi WNW 6.9 mph - N/A   Clear
1:35 AM 62.6 °F 60.8 °F 94% 29.99 in 10.0 mi West 8.1 mph - N/A   Clear
1:55 AM 62.6 °F 60.8 °F 94% 30.00 in 10.0 mi WNW 8.1 mph - N/A   Clear
2:15 AM 62.1 °F 60.4 °F 94% 30.00 in 10.0 mi NW 5.8 mph - N/A   Clear
2:35 AM 61.9 °F 60.8 °F 96% 30.00 in 10.0 mi NW 8.1 mph - N/A   Clear
2:55 AM 61.7 °F 60.4 °F 96% 30.01 in 10.0 mi NNW 8.1 mph - N/A   Clear
3:15 AM 61.7 °F 60.3 °F 95% 30.02 in 10.0 mi NNW 6.9 mph - N/A   Scattered Clouds
3:35 AM 61.7 °F 60.1 °F 94% 30.03 in 10.0 mi NNW 6.9 mph - N/A   Scattered Clouds
3:55 AM 61.3 °F 59.9 °F 95% 30.03 in 10.0 mi North 6.9 mph - N/A   Clear
4:15 AM 61.0 °F 59.4 °F 94% 30.03 in 10.0 mi North 9.2 mph - N/A   Clear
4:35 AM 60.8 °F 58.8 °F 93% 30.04 in 10.0 mi North 10.4 mph - N/A   Clear
4:55 AM 60.4 °F 57.4 °F 90% 30.04 in 10.0 mi North 10.4 mph - N/A   Clear
5:15 AM 59.9 °F 56.5 °F 88% 30.05 in 10.0 mi North 8.1 mph - N/A   Clear
5:35 AM 59.0 °F 55.6 °F 88% 30.06 in 10.0 mi North 5.8 mph - N/A   Clear
5:55 AM 57.7 °F 54.7 °F 90% 30.07 in 10.0 mi North 4.6 mph - N/A   Scattered Clouds
6:15 AM 56.5 °F 54.0 °F 91% 30.08 in 10.0 mi NNW 4.6 mph - N/A   Scattered Clouds
6:35 AM 59.0 °F 56.3 °F 91% 30.08 in 10.0 mi Calm Calm - N/A   Mostly Cloudy
6:55 AM 61.5 °F 57.0 °F 85% 30.09 in 10.0 mi NNW 4.6 mph - N/A   Overcast
7:15 AM 62.6 °F 57.2 °F 82% 30.09 in 10.0 mi NW 4.6 mph - N/A   Scattered Clouds
7:35 AM 63.0 °F 57.4 °F 82% 30.10 in 10.0 mi NNW 6.9 mph - N/A   Clear
7:55 AM 63.5 °F 57.7 °F 81% 30.10 in 10.0 mi North 12.7 mph - N/A   Clear
8:15 AM 63.3 °F 57.0 °F 80% 30.11 in 10.0 mi North 11.5 mph - N/A   Clear
8:35 AM 63.9 °F 56.3 °F 76% 30.12 in 10.0 mi North 13.8 mph - N/A   Clear
8:55 AM 64.9 °F 55.4 °F 71% 30.13 in 10.0 mi North 13.8 mph 17.3 mph N/A   Clear
9:35 AM 66.6 °F 54.3 °F 65% 30.14 in 10.0 mi North 12.7 mph - N/A   Clear
9:55 AM 67.1 °F 54.0 °F 63% 30.14 in 10.0 mi North 15.0 mph 23.0 mph N/A   Clear
10:15 AM 68.4 °F 55.2 °F 63% 30.14 in 10.0 mi NNW 12.7 mph 18.4 mph N/A   Clear
10:35 AM 68.0 °F 52.9 °F 58% 30.14 in 10.0 mi North 16.1 mph 21.9 mph N/A   Clear
10:55 AM 69.4 °F 53.8 °F 57% 30.15 in 10.0 mi North 16.1 mph 21.9 mph N/A   Scattered Clouds
11:15 AM 68.7 °F 53.4 °F 58% 30.15 in 10.0 mi North 16.1 mph 21.9 mph N/A   Scattered Clouds
11:35 AM 69.6 °F 53.2 °F 56% 30.15 in 10.0 mi North 12.7 mph 20.7 mph N/A   Scattered Clouds
11:55 AM 69.8 °F 53.1 °F 55% 30.15 in 10.0 mi North 10.4 mph - N/A   Scattered Clouds
12:15 PM 71.4 °F 54.5 °F 55% 30.15 in 10.0 mi North 12.7 mph - N/A   Scattered Clouds
12:35 PM 71.2 °F 54.0 °F 54% 30.15 in 10.0 mi NNW 13.8 mph 19.6 mph N/A   Mostly Cloudy
12:55 PM 71.4 °F 53.1 °F 52% 30.14 in 10.0 mi NNW 12.7 mph 19.6 mph N/A   Mostly Cloudy
1:15 PM 71.6 °F 54.0 °F 54% 30.14 in 10.0 mi NW 11.5 mph 18.4 mph N/A   Mostly Cloudy
1:35 PM 73.2 °F 54.3 °F 51% 30.14 in 10.0 mi North 15.0 mph 19.6 mph N/A   Scattered Clouds
1:55 PM 72.9 °F 53.4 °F 50% 30.14 in 10.0 mi NNW 11.5 mph - N/A   Scattered Clouds
2:15 PM 73.0 °F 52.5 °F 48% 30.14 in 10.0 mi NNW 8.1 mph 21.9 mph N/A   Scattered Clouds
2:35 PM 73.4 °F 53.8 °F 50% 30.14 in 10.0 mi NNW 11.5 mph 18.4 mph N/A   Mostly Cloudy
2:55 PM 71.6 °F 53.6 °F 53% 30.14 in 10.0 mi North 12.7 mph - N/A   Mostly Cloudy
3:15 PM 73.4 °F 53.8 °F 50% 30.15 in 10.0 mi North 11.5 mph 16.1 mph N/A   Mostly Cloudy
3:35 PM 73.6 °F 52.7 °F 48% 30.15 in 10.0 mi North 12.7 mph 17.3 mph N/A   Scattered Clouds
3:55 PM 72.3 °F 53.6 °F 52% 30.15 in 10.0 mi NNW 10.4 mph - N/A   Mostly Cloudy
4:15 PM 71.2 °F 52.7 °F 52% 30.15 in 10.0 mi NNW 9.2 mph 19.6 mph N/A   Mostly Cloudy
4:35 PM 71.2 °F 52.9 °F 52% 30.15 in 10.0 mi North 12.7 mph - N/A   Mostly Cloudy
4:55 PM 71.8 °F 53.6 °F 53% 30.15 in 10.0 mi North 8.1 mph - N/A   Overcast
5:15 PM 71.4 °F 53.4 °F 53% 30.14 in 10.0 mi NNW 8.1 mph - N/A   Overcast
5:35 PM 71.8 °F 53.1 °F 52% 30.14 in 10.0 mi North 9.2 mph - N/A   Overcast
5:55 PM 71.2 °F 54.0 °F 54% 30.14 in 10.0 mi North 6.9 mph - N/A   Overcast
6:15 PM 72.5 °F 53.8 °F 52% 30.13 in 10.0 mi North 9.2 mph - N/A   Mostly Cloudy
6:35 PM 71.4 °F 53.4 °F 53% 30.13 in 10.0 mi North 10.4 mph - N/A   Clear
6:55 PM 71.1 °F 54.0 °F 55% 30.13 in 10.0 mi North 6.9 mph - N/A   Clear
7:15 PM 71.4 °F 54.9 °F 56% 30.13 in 10.0 mi Calm Calm - N/A   Clear
7:35 PM 70.9 °F 55.8 °F 59% 30.13 in 10.0 mi Calm Calm - N/A   Clear
7:55 PM 69.8 °F 56.8 °F 63% 30.12 in 10.0 mi Calm Calm - N/A   Clear
8:15 PM 65.8 °F 57.4 °F 74% 30.12 in 10.0 mi Calm Calm - N/A   Clear
8:35 PM 62.6 °F 57.2 °F 82% 30.12 in 10.0 mi Calm Calm - N/A   Clear
8:55 PM 61.3 °F 56.7 °F 85% 30.12 in 10.0 mi Calm Calm - N/A   Clear
9:15 PM 60.1 °F 56.1 °F 87% 30.12 in 10.0 mi Calm Calm - N/A   Clear
9:35 PM 59.0 °F 55.4 °F 88% 30.12 in 10.0 mi Calm Calm - N/A   Clear
9:55 PM 57.2 °F 54.5 °F 91% 30.13 in 10.0 mi Calm Calm - N/A   Clear
10:15 PM 57.2 °F 54.7 °F 91% 30.13 in 10.0 mi Calm Calm - N/A   Clear
10:35 PM 55.6 °F 53.6 °F 93% 30.12 in 10.0 mi Calm Calm - N/A   Clear
10:55 PM 54.9 °F 53.1 °F 94% 30.12 in 10.0 mi Calm Calm - N/A   Clear
11:15 PM 54.5 °F 52.7 °F 94% 30.12 in 10.0 mi Calm Calm - N/A   Clear
11:35 PM 54.0 °F 52.3 °F 94% 30.12 in 10.0 mi Calm Calm - N/A   Clear
11:55 PM 54.5 °F 53.2 °F 96% 30.12 in 10.0 mi Calm Calm - N/A   Clear